Soldotna, AK

8:21 AM AKST on February 09, 2016 (GMT -0900)
Soldotna

Weather History for PASX - May, 2013

Change the Weather History Date:

Monday, May 20, 2013

  Actual Average Record
Temperature  
Mean Temperature 36 °F -  
Max Temperature 48 °F 55 °F 77 °F (1968)
Min Temperature 23 °F 35 °F 23 °F (2013)
Degree Days  
Heating Degree Days 30    
Moisture  
Dew Point 21 °F    
Average Humidity 53    
Maximum Humidity 75    
Minimum Humidity 34    
Precipitation  
Precipitation 0.00 in - - ()
Sea Level Pressure  
Sea Level Pressure 30.60 in    
Wind  
Wind Speed 4 mph (West)    
Max Wind Speed 15 mph    
Max Gust Speed -    
Visibility 10 miles    
Events      
Averages and records for this station are not official NWS values.
T = Trace of Precipitation, MM = Missing Value Source: NWS Daily Summary

Daily Weather History Graph

Daily Weather History Graph

Search for Another Location

Airport or City:

Trip Planner

Search our weather history database for the weather conditions in past years. The results will help you decide how hot, cold, wet, or windy it might be!

Date:

Astronomy

May. 20, 2013 Rise Set
Actual Time 5:10 AM AKDT 10:52 PM AKDT
Civil Twilight 3:58 AM AKDT 12:06 AM AKDT
Nautical Twilight 2:33 AM AKDT Sun does not rise
Astronomical Twilight Sun does not rise Sun does not rise
Moon 4:56 PM AKDT (5/20) 3:34 AM AKDT (5/20)
Length of Visible Light 20h 07m
Length of Day
17h 42m
Waxing Gibbous, 76% of the Moon is Illuminated
May 20
Waxing Gibbous
May 24
Full
May 31
Last Quarter
Jun 8
New
Jun 16
First Quarter

Hourly Weather History & Observations

Time (AKDT) Temp. Windchill Dew Point Humidity Pressure Visibility Wind Dir Wind Speed Gust Speed Precip Events Conditions
12:16 AM 30.2 °F - 21.2 °F 69% 30.60 in 10.0 mi Calm Calm - N/A   Clear
12:36 AM 30.2 °F - 17.6 °F 60% 30.61 in 10.0 mi Calm Calm - N/A   Clear
12:56 AM 28.4 °F - 17.6 °F 64% 30.61 in 10.0 mi Calm Calm - N/A   Clear
1:16 AM 26.6 °F - 17.6 °F 69% 30.61 in 10.0 mi Calm Calm - N/A   Clear
1:36 AM 28.4 °F - 17.6 °F 64% 30.61 in 10.0 mi Calm Calm - N/A   Clear
1:56 AM 26.6 °F - 17.6 °F 69% 30.62 in 10.0 mi Calm Calm - N/A   Clear
2:16 AM 26.6 °F 22.6 °F 17.6 °F 69% 30.62 in 10.0 mi East 3.5 mph - N/A   Clear
2:36 AM 26.6 °F - 17.6 °F 69% 30.63 in 10.0 mi Calm Calm - N/A   Clear
2:56 AM 26.6 °F - 17.6 °F 69% 30.64 in 10.0 mi Calm Calm - N/A   Clear
3:16 AM 24.8 °F - 17.6 °F 74% 30.64 in 10.0 mi Calm Calm - N/A   Clear
3:56 AM 24.8 °F 19.1 °F 17.6 °F 74% 30.64 in 10.0 mi East 4.6 mph - N/A   Clear
4:16 AM 26.6 °F 19.1 °F 17.6 °F 69% 30.64 in 10.0 mi East 6.9 mph - N/A   Clear
4:36 AM 23.0 °F 18.4 °F 15.8 °F 74% 30.64 in 10.0 mi East 3.5 mph - N/A   Clear
4:56 AM 24.8 °F 16.9 °F 17.6 °F 74% 30.64 in 10.0 mi East 6.9 mph - N/A   Clear
5:16 AM 24.8 °F 17.9 °F 17.6 °F 74% 30.64 in 10.0 mi East 5.8 mph - N/A   Clear
5:36 AM 24.8 °F 20.5 °F 17.6 °F 74% 30.64 in 10.0 mi East 3.5 mph - N/A   Clear
5:56 AM 24.8 °F 17.9 °F 17.6 °F 74% 30.64 in 10.0 mi East 5.8 mph - N/A   Clear
6:16 AM 24.8 °F 20.5 °F 17.6 °F 74% 30.64 in 10.0 mi East 3.5 mph - N/A   Clear
6:36 AM 26.6 °F 21.2 °F 17.6 °F 69% 30.64 in 10.0 mi East 4.6 mph - N/A   Clear
6:56 AM 26.6 °F 22.6 °F 19.4 °F 74% 30.64 in 10.0 mi East 3.5 mph - N/A   Clear
7:16 AM 28.4 °F 24.6 °F 19.4 °F 69% 30.63 in 10.0 mi ENE 3.5 mph - N/A   Clear
7:36 AM 28.4 °F - 19.4 °F 69% 30.63 in 10.0 mi Calm Calm - N/A   Clear
7:56 AM 30.2 °F - 19.4 °F 64% 30.63 in 10.0 mi Calm Calm - N/A   Clear
8:16 AM 33.8 °F - 21.2 °F 60% 30.63 in 10.0 mi Calm Calm - N/A   Clear
8:36 AM 35.6 °F - 21.2 °F 56% 30.63 in 10.0 mi Calm Calm - N/A   Clear
8:56 AM 37.4 °F - 23.0 °F 56% 30.62 in 10.0 mi Calm Calm - N/A   Clear
9:16 AM 39.2 °F - 21.2 °F 49% 30.62 in 10.0 mi Calm Calm - N/A   Clear
9:36 AM 41.0 °F 39.0 °F 19.4 °F 42% 30.63 in 10.0 mi WSW 3.5 mph - N/A   Clear
9:56 AM 42.8 °F 40.1 °F 19.4 °F 39% 30.63 in 10.0 mi West 4.6 mph - N/A   Clear
10:16 AM 42.8 °F 38.0 °F 19.4 °F 39% 30.63 in 10.0 mi NW 8.1 mph - N/A   Clear
10:56 AM 44.6 °F 40.7 °F 19.4 °F 37% 30.62 in 10.0 mi NNW 6.9 mph - N/A   Clear
11:16 AM 44.6 °F 42.2 °F 19.4 °F 37% 30.62 in 10.0 mi WNW 4.6 mph - N/A   Clear
11:36 AM 44.6 °F 43.1 °F 19.4 °F 37% 30.62 in 10.0 mi West 3.5 mph - N/A   Clear
11:56 AM 44.6 °F 43.1 °F 19.4 °F 37% 30.62 in 10.0 mi West 3.5 mph - N/A   Clear
12:16 PM 46.4 °F 44.3 °F 21.2 °F 37% 30.62 in 10.0 mi South 4.6 mph - N/A   Clear
12:36 PM 46.4 °F 43.5 °F 21.2 °F 37% 30.61 in 10.0 mi SSW 5.8 mph - N/A   Clear
12:56 PM 46.4 °F 45.2 °F 19.4 °F 34% 30.61 in 10.0 mi South 3.5 mph - N/A   Clear
1:16 PM 48.2 °F - 21.2 °F 34% 30.60 in 10.0 mi West 11.5 mph - N/A   Clear
1:36 PM 48.2 °F - 21.2 °F 34% 30.60 in 10.0 mi WNW 9.2 mph - N/A   Clear
1:56 PM 48.2 °F - 23.0 °F 37% 30.59 in 10.0 mi WNW 6.9 mph - N/A   Clear
2:16 PM 48.2 °F - 23.0 °F 37% 30.59 in 10.0 mi WNW 9.2 mph - N/A   Clear
2:36 PM 48.2 °F - 21.2 °F 34% 30.59 in 10.0 mi West 11.5 mph - N/A   Clear
2:56 PM 48.2 °F - 21.2 °F 34% 30.59 in 10.0 mi WNW 12.7 mph - N/A   Clear
3:16 PM 46.4 °F 40.4 °F 19.4 °F 34% 30.59 in 10.0 mi West 13.8 mph - N/A   Clear
3:36 PM 46.4 °F 41.1 °F 19.4 °F 34% 30.59 in 10.0 mi WNW 11.5 mph - N/A   Clear
3:56 PM 46.4 °F 41.5 °F 19.4 °F 34% 30.59 in 10.0 mi WNW 10.4 mph - N/A   Clear
4:16 PM 46.4 °F 40.7 °F 19.4 °F 34% 30.59 in 10.0 mi West 12.7 mph - N/A   Clear
4:36 PM 46.4 °F 41.1 °F 19.4 °F 34% 30.59 in 10.0 mi WNW 11.5 mph - N/A   Clear
4:56 PM 46.4 °F 41.1 °F 19.4 °F 34% 30.59 in 10.0 mi West 11.5 mph - N/A   Clear
5:16 PM 46.4 °F 40.1 °F 19.4 °F 34% 30.58 in 10.0 mi WSW 15.0 mph - N/A   Clear
5:36 PM 44.6 °F 38.1 °F 24.8 °F 46% 30.59 in 10.0 mi West 13.8 mph - N/A   Clear
5:56 PM 44.6 °F 38.4 °F 21.2 °F 39% 30.59 in 10.0 mi West 12.7 mph - N/A   Clear
6:16 PM 44.6 °F 38.4 °F 21.2 °F 39% 30.58 in 10.0 mi West 12.7 mph - N/A   Clear
6:36 PM 44.6 °F 39.7 °F 21.2 °F 39% 30.58 in 10.0 mi West 9.2 mph - N/A   Clear
6:56 PM 44.6 °F 38.8 °F 19.4 °F 37% 30.57 in 10.0 mi West 11.5 mph - N/A   Clear
7:16 PM 44.6 °F 38.8 °F 17.6 °F 34% 30.57 in 10.0 mi West 11.5 mph - N/A   Clear
7:36 PM 44.6 °F 38.8 °F 17.6 °F 34% 30.57 in 10.0 mi West 11.5 mph - N/A   Clear
7:56 PM 44.6 °F 38.8 °F 19.4 °F 37% 30.57 in 10.0 mi West 11.5 mph - N/A   Clear
8:16 PM 42.8 °F 36.6 °F 24.8 °F 49% 30.56 in 10.0 mi West 11.5 mph - N/A   Clear
8:36 PM 42.8 °F 37.0 °F 28.4 °F 57% 30.57 in 10.0 mi West 10.4 mph - N/A   Mostly Cloudy
8:56 PM 42.8 °F 38.0 °F 28.4 °F 57% 30.56 in 10.0 mi WSW 8.1 mph - N/A   Mostly Cloudy
9:16 PM 42.8 °F 37.0 °F 30.2 °F 61% 30.56 in 10.0 mi WSW 10.4 mph - N/A   Partly Cloudy
9:36 PM 42.8 °F 37.5 °F 30.2 °F 61% 30.56 in 10.0 mi WSW 9.2 mph - N/A   Clear
9:56 PM 41.0 °F 36.4 °F 30.2 °F 65% 30.56 in 10.0 mi WSW 6.9 mph - N/A   Scattered Clouds
10:16 PM 41.0 °F 35.8 °F 30.2 °F 65% 30.57 in 10.0 mi WSW 8.1 mph - N/A   Partly Cloudy
10:36 PM 39.2 °F 34.2 °F 30.2 °F 70% 30.57 in 10.0 mi WSW 6.9 mph - N/A   Clear
10:56 PM 39.2 °F 35.9 °F 30.2 °F 70% 30.57 in 10.0 mi WSW 4.6 mph - N/A   Clear
11:16 PM 37.4 °F - 30.2 °F 75% 30.56 in 10.0 mi Calm Calm - N/A   Clear
11:36 PM 35.6 °F - 26.6 °F 70% 30.56 in 10.0 mi Calm Calm - N/A   Clear
11:56 PM 33.8 °F - 26.6 °F 75% 30.56 in 10.0 mi Calm Calm - N/A   Clear